sensor_id;sensor_type;location;lat;lon;timestamp;P1;durP1;ratioP1;P2;durP2;ratioP2
17052;SDS011;8643;48.824;11.422;2022-12-29T00:01:06;6.30;;;3.77;;
17052;SDS011;8643;48.824;11.422;2022-12-29T00:03:36;5.10;;;3.33;;
17052;SDS011;8643;48.824;11.422;2022-12-29T00:06:05;5.43;;;3.37;;
17052;SDS011;8643;48.824;11.422;2022-12-29T00:08:34;6.30;;;3.90;;
17052;SDS011;8643;48.824;11.422;2022-12-29T00:11:19;4.83;;;3.50;;
17052;SDS011;8643;48.824;11.422;2022-12-29T00:13:50;7.43;;;3.67;;
17052;SDS011;8643;48.824;11.422;2022-12-29T00:16:37;5.43;;;3.17;;
17052;SDS011;8643;48.824;11.422;2022-12-29T00:19:20;5.83;;;3.50;;
17052;SDS011;8643;48.824;11.422;2022-12-29T00:22:09;6.43;;;3.70;;
17052;SDS011;8643;48.824;11.422;2022-12-29T00:24:56;5.10;;;3.17;;
17052;SDS011;8643;48.824;11.422;2022-12-29T00:27:44;5.03;;;3.20;;
17052;SDS011;8643;48.824;11.422;2022-12-29T00:30:33;6.73;;;3.70;;
17052;SDS011;8643;48.824;11.422;2022-12-29T00:33:21;4.27;;;2.93;;
17052;SDS011;8643;48.824;11.422;2022-12-29T00:36:11;4.73;;;2.73;;
17052;SDS011;8643;48.824;11.422;2022-12-29T00:38:47;6.27;;;3.23;;
17052;SDS011;8643;48.824;11.422;2022-12-29T00:41:36;5.83;;;3.30;;
17052;SDS011;8643;48.824;11.422;2022-12-29T00:44:24;5.00;;;3.27;;
17052;SDS011;8643;48.824;11.422;2022-12-29T00:46:54;4.43;;;2.97;;
17052;SDS011;8643;48.824;11.422;2022-12-29T00:49:24;5.70;;;3.50;;
17052;SDS011;8643;48.824;11.422;2022-12-29T00:51:58;6.50;;;3.07;;
17052;SDS011;8643;48.824;11.422;2022-12-29T00:54:30;4.47;;;2.80;;
17052;SDS011;8643;48.824;11.422;2022-12-29T00:57:01;5.87;;;3.23;;
17052;SDS011;8643;48.824;11.422;2022-12-29T00:59:40;5.07;;;2.90;;
17052;SDS011;8643;48.824;11.422;2022-12-29T01:02:16;4.77;;;2.77;;
17052;SDS011;8643;48.824;11.422;2022-12-29T01:04:45;4.93;;;2.70;;
17052;SDS011;8643;48.824;11.422;2022-12-29T01:07:15;4.73;;;2.77;;
17052;SDS011;8643;48.824;11.422;2022-12-29T01:09:45;4.30;;;2.70;;
17052;SDS011;8643;48.824;11.422;2022-12-29T01:12:32;7.93;;;2.90;;
17052;SDS011;8643;48.824;11.422;2022-12-29T01:15:14;3.57;;;2.63;;
17052;SDS011;8643;48.824;11.422;2022-12-29T01:17:44;4.73;;;2.60;;
17052;SDS011;8643;48.824;11.422;2022-12-29T01:20:13;5.10;;;2.60;;
17052;SDS011;8643;48.824;11.422;2022-12-29T01:22:43;5.17;;;2.67;;
17052;SDS011;8643;48.824;11.422;2022-12-29T01:25:18;4.90;;;2.47;;
17052;SDS011;8643;48.824;11.422;2022-12-29T01:27:49;4.13;;;2.43;;
17052;SDS011;8643;48.824;11.422;2022-12-29T01:30:20;3.80;;;2.10;;
17052;SDS011;8643;48.824;11.422;2022-12-29T01:32:52;4.50;;;2.60;;
17052;SDS011;8643;48.824;11.422;2022-12-29T01:35:21;3.87;;;2.57;;
17052;SDS011;8643;48.824;11.422;2022-12-29T01:37:50;5.20;;;2.77;;
17052;SDS011;8643;48.824;11.422;2022-12-29T01:40:19;4.03;;;2.60;;
17052;SDS011;8643;48.824;11.422;2022-12-29T01:42:48;3.70;;;2.40;;
17052;SDS011;8643;48.824;11.422;2022-12-29T01:45:20;3.90;;;2.40;;
17052;SDS011;8643;48.824;11.422;2022-12-29T01:47:49;3.87;;;2.17;;
17052;SDS011;8643;48.824;11.422;2022-12-29T01:50:25;4.10;;;2.37;;
17052;SDS011;8643;48.824;11.422;2022-12-29T01:53:02;4.17;;;2.47;;
17052;SDS011;8643;48.824;11.422;2022-12-29T01:55:37;4.73;;;2.60;;
17052;SDS011;8643;48.824;11.422;2022-12-29T01:58:12;4.60;;;3.00;;
17052;SDS011;8643;48.824;11.422;2022-12-29T02:00:47;3.90;;;2.50;;
17052;SDS011;8643;48.824;11.422;2022-12-29T02:03:16;5.13;;;2.83;;
17052;SDS011;8643;48.824;11.422;2022-12-29T02:05:50;4.87;;;2.83;;
17052;SDS011;8643;48.824;11.422;2022-12-29T02:08:26;5.13;;;2.87;;
17052;SDS011;8643;48.824;11.422;2022-12-29T02:10:58;5.80;;;3.00;;
17052;SDS011;8643;48.824;11.422;2022-12-29T02:13:32;5.33;;;2.70;;
17052;SDS011;8643;48.824;11.422;2022-12-29T02:16:05;4.57;;;2.53;;
17052;SDS011;8643;48.824;11.422;2022-12-29T02:18:49;6.03;;;2.70;;
17052;SDS011;8643;48.824;11.422;2022-12-29T02:21:48;4.60;;;2.80;;
17052;SDS011;8643;48.824;11.422;2022-12-29T02:24:49;4.63;;;2.67;;
17052;SDS011;8643;48.824;11.422;2022-12-29T02:28:14;4.40;;;2.63;;
17052;SDS011;8643;48.824;11.422;2022-12-29T02:31:29;4.03;;;2.43;;
17052;SDS011;8643;48.824;11.422;2022-12-29T02:34:10;4.90;;;2.40;;
17052;SDS011;8643;48.824;11.422;2022-12-29T02:36:56;3.70;;;2.60;;
17052;SDS011;8643;48.824;11.422;2022-12-29T02:39:37;4.30;;;2.80;;
17052;SDS011;8643;48.824;11.422;2022-12-29T02:42:13;6.17;;;2.70;;
17052;SDS011;8643;48.824;11.422;2022-12-29T02:44:59;4.60;;;2.70;;
17052;SDS011;8643;48.824;11.422;2022-12-29T02:47:37;5.30;;;2.83;;
17052;SDS011;8643;48.824;11.422;2022-12-29T02:50:17;5.70;;;3.00;;
17052;SDS011;8643;48.824;11.422;2022-12-29T02:52:55;4.00;;;2.60;;
17052;SDS011;8643;48.824;11.422;2022-12-29T02:55:28;3.40;;;2.70;;
17052;SDS011;8643;48.824;11.422;2022-12-29T03:00:49;4.73;;;3.10;;
17052;SDS011;8643;48.824;11.422;2022-12-29T03:03:45;5.10;;;3.17;;
17052;SDS011;8643;48.824;11.422;2022-12-29T03:06:31;5.37;;;3.23;;
17052;SDS011;8643;48.824;11.422;2022-12-29T03:09:11;6.67;;;3.47;;
17052;SDS011;8643;48.824;11.422;2022-12-29T03:11:57;5.33;;;3.43;;
17052;SDS011;8643;48.824;11.422;2022-12-29T03:14:48;5.93;;;3.70;;
17052;SDS011;8643;48.824;11.422;2022-12-29T03:18:04;5.17;;;3.20;;
17052;SDS011;8643;48.824;11.422;2022-12-29T03:20:44;5.83;;;3.13;;
17052;SDS011;8643;48.824;11.422;2022-12-29T03:23:23;4.90;;;3.13;;
17052;SDS011;8643;48.824;11.422;2022-12-29T03:25:56;4.50;;;2.90;;
17052;SDS011;8643;48.824;11.422;2022-12-29T03:28:34;3.93;;;2.90;;
17052;SDS011;8643;48.824;11.422;2022-12-29T03:31:08;4.93;;;3.00;;
17052;SDS011;8643;48.824;11.422;2022-12-29T03:33:39;5.43;;;3.07;;
17052;SDS011;8643;48.824;11.422;2022-12-29T03:36:14;5.13;;;3.13;;
17052;SDS011;8643;48.824;11.422;2022-12-29T03:38:57;6.07;;;3.20;;
17052;SDS011;8643;48.824;11.422;2022-12-29T03:41:33;4.33;;;2.70;;
17052;SDS011;8643;48.824;11.422;2022-12-29T03:44:05;5.73;;;2.90;;
17052;SDS011;8643;48.824;11.422;2022-12-29T03:46:34;4.83;;;2.93;;
17052;SDS011;8643;48.824;11.422;2022-12-29T03:49:04;4.77;;;2.67;;
17052;SDS011;8643;48.824;11.422;2022-12-29T03:51:34;4.73;;;2.70;;
17052;SDS011;8643;48.824;11.422;2022-12-29T03:54:04;4.03;;;2.37;;
17052;SDS011;8643;48.824;11.422;2022-12-29T03:56:33;3.53;;;2.20;;
17052;SDS011;8643;48.824;11.422;2022-12-29T03:59:03;3.87;;;2.50;;
17052;SDS011;8643;48.824;11.422;2022-12-29T04:01:37;4.63;;;2.80;;
17052;SDS011;8643;48.824;11.422;2022-12-29T04:04:06;5.50;;;2.70;;
17052;SDS011;8643;48.824;11.422;2022-12-29T04:06:37;6.40;;;2.83;;
17052;SDS011;8643;48.824;11.422;2022-12-29T04:09:09;4.10;;;2.60;;
17052;SDS011;8643;48.824;11.422;2022-12-29T04:11:43;4.30;;;2.57;;
17052;SDS011;8643;48.824;11.422;2022-12-29T04:14:12;3.63;;;2.23;;
17052;SDS011;8643;48.824;11.422;2022-12-29T04:16:43;4.93;;;2.63;;
17052;SDS011;8643;48.824;11.422;2022-12-29T04:19:13;3.80;;;2.50;;
17052;SDS011;8643;48.824;11.422;2022-12-29T04:21:46;5.03;;;2.30;;
17052;SDS011;8643;48.824;11.422;2022-12-29T04:24:16;5.00;;;2.50;;
17052;SDS011;8643;48.824;11.422;2022-12-29T04:26:47;3.63;;;2.50;;
17052;SDS011;8643;48.824;11.422;2022-12-29T04:29:35;2.50;;;1.90;;
17052;SDS011;8643;48.824;11.422;2022-12-29T04:32:17;4.13;;;2.50;;
17052;SDS011;8643;48.824;11.422;2022-12-29T04:34:48;4.90;;;2.53;;
17052;SDS011;8643;48.824;11.422;2022-12-29T04:37:19;4.47;;;2.20;;
17052;SDS011;8643;48.824;11.422;2022-12-29T04:39:48;4.37;;;2.47;;
17052;SDS011;8643;48.824;11.422;2022-12-29T04:42:17;4.10;;;2.50;;
17052;SDS011;8643;48.824;11.422;2022-12-29T04:44:48;3.37;;;2.20;;
17052;SDS011;8643;48.824;11.422;2022-12-29T04:47:37;4.13;;;2.40;;
17052;SDS011;8643;48.824;11.422;2022-12-29T04:50:35;4.27;;;2.37;;
17052;SDS011;8643;48.824;11.422;2022-12-29T04:53:15;4.43;;;2.50;;
17052;SDS011;8643;48.824;11.422;2022-12-29T04:55:48;3.93;;;2.13;;
17052;SDS011;8643;48.824;11.422;2022-12-29T04:58:19;3.70;;;2.17;;
17052;SDS011;8643;48.824;11.422;2022-12-29T05:00:50;3.87;;;2.20;;
17052;SDS011;8643;48.824;11.422;2022-12-29T05:03:22;3.60;;;2.30;;
17052;SDS011;8643;48.824;11.422;2022-12-29T05:05:52;3.43;;;1.90;;
17052;SDS011;8643;48.824;11.422;2022-12-29T05:08:24;2.57;;;1.80;;
17052;SDS011;8643;48.824;11.422;2022-12-29T05:10:56;3.80;;;2.00;;
17052;SDS011;8643;48.824;11.422;2022-12-29T05:13:26;4.27;;;1.90;;
17052;SDS011;8643;48.824;11.422;2022-12-29T05:15:56;2.40;;;1.70;;
17052;SDS011;8643;48.824;11.422;2022-12-29T05:18:26;2.83;;;1.80;;
17052;SDS011;8643;48.824;11.422;2022-12-29T05:20:57;3.83;;;1.90;;
17052;SDS011;8643;48.824;11.422;2022-12-29T05:23:28;2.57;;;1.83;;
17052;SDS011;8643;48.824;11.422;2022-12-29T05:26:04;3.07;;;1.70;;
17052;SDS011;8643;48.824;11.422;2022-12-29T05:28:55;2.33;;;1.70;;
17052;SDS011;8643;48.824;11.422;2022-12-29T05:31:24;3.23;;;2.07;;
17052;SDS011;8643;48.824;11.422;2022-12-29T05:33:52;2.83;;;1.80;;
17052;SDS011;8643;48.824;11.422;2022-12-29T05:36:22;2.97;;;1.60;;
17052;SDS011;8643;48.824;11.422;2022-12-29T05:38:55;5.87;;;2.20;;
17052;SDS011;8643;48.824;11.422;2022-12-29T05:41:25;3.17;;;1.83;;
17052;SDS011;8643;48.824;11.422;2022-12-29T05:44:13;2.40;;;1.73;;
17052;SDS011;8643;48.824;11.422;2022-12-29T05:47:13;3.33;;;1.83;;
17052;SDS011;8643;48.824;11.422;2022-12-29T05:49:56;2.93;;;2.07;;
17052;SDS011;8643;48.824;11.422;2022-12-29T05:52:48;3.40;;;1.80;;
17052;SDS011;8643;48.824;11.422;2022-12-29T05:55:19;2.90;;;1.70;;
17052;SDS011;8643;48.824;11.422;2022-12-29T05:57:51;5.13;;;2.00;;
17052;SDS011;8643;48.824;11.422;2022-12-29T06:00:21;3.93;;;1.70;;
17052;SDS011;8643;48.824;11.422;2022-12-29T06:06:13;3.40;;;1.83;;
17052;SDS011;8643;48.824;11.422;2022-12-29T06:08:42;2.47;;;1.53;;
17052;SDS011;8643;48.824;11.422;2022-12-29T06:11:13;3.57;;;1.80;;
17052;SDS011;8643;48.824;11.422;2022-12-29T06:13:48;2.53;;;1.60;;
17052;SDS011;8643;48.824;11.422;2022-12-29T06:16:17;2.63;;;1.97;;
17052;SDS011;8643;48.824;11.422;2022-12-29T06:18:48;3.57;;;1.80;;
17052;SDS011;8643;48.824;11.422;2022-12-29T06:21:16;4.60;;;1.87;;
17052;SDS011;8643;48.824;11.422;2022-12-29T06:23:44;2.93;;;1.77;;
17052;SDS011;8643;48.824;11.422;2022-12-29T06:26:14;3.07;;;1.93;;
17052;SDS011;8643;48.824;11.422;2022-12-29T06:28:45;2.37;;;1.83;;
17052;SDS011;8643;48.824;11.422;2022-12-29T06:31:13;3.80;;;1.67;;
17052;SDS011;8643;48.824;11.422;2022-12-29T06:33:41;3.00;;;1.60;;
17052;SDS011;8643;48.824;11.422;2022-12-29T06:36:15;3.60;;;1.60;;
17052;SDS011;8643;48.824;11.422;2022-12-29T06:38:44;2.73;;;1.73;;
17052;SDS011;8643;48.824;11.422;2022-12-29T06:41:12;2.50;;;1.80;;
17052;SDS011;8643;48.824;11.422;2022-12-29T06:44:08;4.97;;;1.73;;
17052;SDS011;8643;48.824;11.422;2022-12-29T06:46:56;3.50;;;1.77;;
17052;SDS011;8643;48.824;11.422;2022-12-29T06:49:24;2.50;;;1.90;;
17052;SDS011;8643;48.824;11.422;2022-12-29T06:51:52;3.20;;;1.70;;
17052;SDS011;8643;48.824;11.422;2022-12-29T06:54:21;2.63;;;1.70;;
17052;SDS011;8643;48.824;11.422;2022-12-29T06:56:51;4.70;;;2.27;;
17052;SDS011;8643;48.824;11.422;2022-12-29T06:59:19;4.07;;;2.00;;
17052;SDS011;8643;48.824;11.422;2022-12-29T07:01:47;3.00;;;1.60;;
17052;SDS011;8643;48.824;11.422;2022-12-29T07:04:17;3.00;;;1.90;;
17052;SDS011;8643;48.824;11.422;2022-12-29T07:06:45;2.70;;;1.50;;
17052;SDS011;8643;48.824;11.422;2022-12-29T07:09:14;4.50;;;1.83;;
17052;SDS011;8643;48.824;11.422;2022-12-29T07:11:42;2.00;;;1.43;;
17052;SDS011;8643;48.824;11.422;2022-12-29T07:14:12;2.83;;;1.73;;
17052;SDS011;8643;48.824;11.422;2022-12-29T07:16:40;4.10;;;2.00;;
17052;SDS011;8643;48.824;11.422;2022-12-29T07:19:09;3.43;;;1.90;;
17052;SDS011;8643;48.824;11.422;2022-12-29T07:21:37;4.43;;;1.60;;
17052;SDS011;8643;48.824;11.422;2022-12-29T07:24:13;3.20;;;1.80;;
17052;SDS011;8643;48.824;11.422;2022-12-29T07:26:41;4.70;;;1.83;;
17052;SDS011;8643;48.824;11.422;2022-12-29T07:29:11;3.73;;;1.70;;
17052;SDS011;8643;48.824;11.422;2022-12-29T07:31:39;3.03;;;1.70;;
17052;SDS011;8643;48.824;11.422;2022-12-29T07:34:08;2.27;;;1.50;;
17052;SDS011;8643;48.824;11.422;2022-12-29T07:36:36;3.17;;;1.37;;
17052;SDS011;8643;48.824;11.422;2022-12-29T07:39:05;2.80;;;1.80;;
17052;SDS011;8643;48.824;11.422;2022-12-29T07:41:33;7.20;;;2.60;;
17052;SDS011;8643;48.824;11.422;2022-12-29T07:44:02;3.50;;;1.80;;
17052;SDS011;8643;48.824;11.422;2022-12-29T07:46:32;3.00;;;1.80;;
17052;SDS011;8643;48.824;11.422;2022-12-29T07:49:20;3.13;;;2.10;;
17052;SDS011;8643;48.824;11.422;2022-12-29T07:51:48;4.30;;;2.50;;
17052;SDS011;8643;48.824;11.422;2022-12-29T07:54:17;9.53;;;4.33;;
17052;SDS011;8643;48.824;11.422;2022-12-29T07:56:45;6.83;;;3.57;;
17052;SDS011;8643;48.824;11.422;2022-12-29T07:59:14;7.20;;;3.90;;
17052;SDS011;8643;48.824;11.422;2022-12-29T08:01:44;4.70;;;2.50;;
17052;SDS011;8643;48.824;11.422;2022-12-29T08:04:12;4.40;;;2.37;;
17052;SDS011;8643;48.824;11.422;2022-12-29T08:06:40;2.97;;;2.00;;
17052;SDS011;8643;48.824;11.422;2022-12-29T08:09:09;3.80;;;2.50;;
17052;SDS011;8643;48.824;11.422;2022-12-29T08:11:47;4.27;;;2.03;;
17052;SDS011;8643;48.824;11.422;2022-12-29T08:14:16;3.40;;;2.10;;
17052;SDS011;8643;48.824;11.422;2022-12-29T08:16:46;6.80;;;2.00;;
17052;SDS011;8643;48.824;11.422;2022-12-29T08:19:14;7.93;;;3.83;;
17052;SDS011;8643;48.824;11.422;2022-12-29T08:21:42;9.77;;;5.10;;
17052;SDS011;8643;48.824;11.422;2022-12-29T08:24:11;12.07;;;6.20;;
17052;SDS011;8643;48.824;11.422;2022-12-29T08:26:39;10.37;;;5.23;;
17052;SDS011;8643;48.824;11.422;2022-12-29T08:29:07;9.67;;;4.50;;
17052;SDS011;8643;48.824;11.422;2022-12-29T08:31:36;8.87;;;4.40;;
17052;SDS011;8643;48.824;11.422;2022-12-29T08:34:06;7.70;;;4.40;;
17052;SDS011;8643;48.824;11.422;2022-12-29T08:36:34;6.40;;;3.67;;
17052;SDS011;8643;48.824;11.422;2022-12-29T08:39:03;3.37;;;2.23;;
17052;SDS011;8643;48.824;11.422;2022-12-29T08:41:32;3.53;;;2.03;;
17052;SDS011;8643;48.824;11.422;2022-12-29T08:44:00;4.13;;;2.20;;
17052;SDS011;8643;48.824;11.422;2022-12-29T08:46:29;2.50;;;1.80;;
17052;SDS011;8643;48.824;11.422;2022-12-29T08:48:57;6.20;;;2.23;;
17052;SDS011;8643;48.824;11.422;2022-12-29T08:51:27;3.57;;;2.20;;
17052;SDS011;8643;48.824;11.422;2022-12-29T08:53:56;4.33;;;2.60;;
17052;SDS011;8643;48.824;11.422;2022-12-29T08:56:24;3.70;;;2.43;;
17052;SDS011;8643;48.824;11.422;2022-12-29T08:58:55;4.93;;;2.87;;
17052;SDS011;8643;48.824;11.422;2022-12-29T09:01:27;4.87;;;3.30;;
17052;SDS011;8643;48.824;11.422;2022-12-29T09:03:56;6.80;;;2.93;;
17052;SDS011;8643;48.824;11.422;2022-12-29T09:06:44;6.73;;;3.63;;
17052;SDS011;8643;48.824;11.422;2022-12-29T09:09:13;7.13;;;3.90;;
17052;SDS011;8643;48.824;11.422;2022-12-29T09:11:41;6.43;;;4.00;;
17052;SDS011;8643;48.824;11.422;2022-12-29T09:14:10;5.70;;;3.90;;
17052;SDS011;8643;48.824;11.422;2022-12-29T09:16:39;6.97;;;4.23;;
17052;SDS011;8643;48.824;11.422;2022-12-29T09:19:25;6.57;;;3.90;;
17052;SDS011;8643;48.824;11.422;2022-12-29T09:21:55;6.17;;;3.80;;
17052;SDS011;8643;48.824;11.422;2022-12-29T09:24:23;7.07;;;4.50;;
17052;SDS011;8643;48.824;11.422;2022-12-29T09:26:52;6.70;;;4.07;;
17052;SDS011;8643;48.824;11.422;2022-12-29T09:29:20;7.70;;;4.30;;
17052;SDS011;8643;48.824;11.422;2022-12-29T09:31:49;7.93;;;4.10;;
17052;SDS011;8643;48.824;11.422;2022-12-29T09:34:18;9.40;;;4.63;;
17052;SDS011;8643;48.824;11.422;2022-12-29T09:36:46;10.00;;;4.27;;
17052;SDS011;8643;48.824;11.422;2022-12-29T09:39:16;10.53;;;4.63;;
17052;SDS011;8643;48.824;11.422;2022-12-29T09:41:46;8.07;;;4.50;;
17052;SDS011;8643;48.824;11.422;2022-12-29T09:44:28;9.83;;;5.57;;
17052;SDS011;8643;48.824;11.422;2022-12-29T09:47:15;13.83;;;6.13;;
17052;SDS011;8643;48.824;11.422;2022-12-29T09:49:47;6.30;;;3.57;;
17052;SDS011;8643;48.824;11.422;2022-12-29T09:52:21;9.77;;;4.90;;
17052;SDS011;8643;48.824;11.422;2022-12-29T09:54:57;7.60;;;4.47;;
17052;SDS011;8643;48.824;11.422;2022-12-29T09:57:40;8.63;;;4.40;;
17052;SDS011;8643;48.824;11.422;2022-12-29T10:00:15;5.07;;;3.00;;
17052;SDS011;8643;48.824;11.422;2022-12-29T10:02:48;6.17;;;2.93;;
17052;SDS011;8643;48.824;11.422;2022-12-29T10:05:27;11.33;;;5.13;;
17052;SDS011;8643;48.824;11.422;2022-12-29T10:08:11;5.50;;;2.80;;
17052;SDS011;8643;48.824;11.422;2022-12-29T10:11:01;4.50;;;2.50;;
17052;SDS011;8643;48.824;11.422;2022-12-29T10:13:43;4.40;;;2.40;;
17052;SDS011;8643;48.824;11.422;2022-12-29T10:16:43;3.97;;;2.50;;
17052;SDS011;8643;48.824;11.422;2022-12-29T10:19:45;4.17;;;2.37;;
17052;SDS011;8643;48.824;11.422;2022-12-29T10:22:32;4.90;;;2.63;;
17052;SDS011;8643;48.824;11.422;2022-12-29T10:25:19;6.40;;;2.63;;
17052;SDS011;8643;48.824;11.422;2022-12-29T10:27:58;5.07;;;2.67;;
17052;SDS011;8643;48.824;11.422;2022-12-29T10:30:31;5.47;;;2.27;;
17052;SDS011;8643;48.824;11.422;2022-12-29T10:33:02;6.60;;;2.17;;
17052;SDS011;8643;48.824;11.422;2022-12-29T10:35:40;6.13;;;2.40;;
17052;SDS011;8643;48.824;11.422;2022-12-29T10:38:11;8.63;;;4.20;;
17052;SDS011;8643;48.824;11.422;2022-12-29T10:40:50;4.23;;;2.67;;
17052;SDS011;8643;48.824;11.422;2022-12-29T10:43:27;4.77;;;2.37;;
17052;SDS011;8643;48.824;11.422;2022-12-29T10:46:01;5.97;;;2.30;;
17052;SDS011;8643;48.824;11.422;2022-12-29T10:48:35;3.27;;;1.80;;
17052;SDS011;8643;48.824;11.422;2022-12-29T10:51:04;3.33;;;2.17;;
17052;SDS011;8643;48.824;11.422;2022-12-29T10:53:37;5.10;;;2.27;;
17052;SDS011;8643;48.824;11.422;2022-12-29T10:56:14;4.30;;;2.60;;
17052;SDS011;8643;48.824;11.422;2022-12-29T10:58:56;4.33;;;2.00;;
17052;SDS011;8643;48.824;11.422;2022-12-29T11:01:42;6.82;;;2.75;;
17052;SDS011;8643;48.824;11.422;2022-12-29T11:04:28;5.03;;;2.40;;
17052;SDS011;8643;48.824;11.422;2022-12-29T11:07:15;5.97;;;2.58;;
17052;SDS011;8643;48.824;11.422;2022-12-29T11:09:52;6.45;;;2.50;;
17052;SDS011;8643;48.824;11.422;2022-12-29T11:12:23;5.40;;;2.92;;
17052;SDS011;8643;48.824;11.422;2022-12-29T11:15:13;4.97;;;2.20;;
17052;SDS011;8643;48.824;11.422;2022-12-29T11:17:44;9.45;;;5.03;;
17052;SDS011;8643;48.824;11.422;2022-12-29T11:20:31;7.03;;;3.00;;
17052;SDS011;8643;48.824;11.422;2022-12-29T11:23:04;8.77;;;4.32;;
17052;SDS011;8643;48.824;11.422;2022-12-29T11:28:47;6.07;;;2.88;;
17052;SDS011;8643;48.824;11.422;2022-12-29T11:31:49;6.25;;;3.00;;
17052;SDS011;8643;48.824;11.422;2022-12-29T11:34:21;6.22;;;2.85;;
17052;SDS011;8643;48.824;11.422;2022-12-29T11:36:53;9.80;;;3.55;;
17052;SDS011;8643;48.824;11.422;2022-12-29T11:39:32;8.18;;;4.30;;
17052;SDS011;8643;48.824;11.422;2022-12-29T11:42:11;6.40;;;4.03;;
17052;SDS011;8643;48.824;11.422;2022-12-29T11:44:43;8.57;;;4.03;;
17052;SDS011;8643;48.824;11.422;2022-12-29T11:47:21;7.28;;;4.55;;
17052;SDS011;8643;48.824;11.422;2022-12-29T11:49:57;5.35;;;2.72;;
17052;SDS011;8643;48.824;11.422;2022-12-29T11:52:30;5.03;;;3.03;;
17052;SDS011;8643;48.824;11.422;2022-12-29T11:55:06;4.38;;;2.80;;
17052;SDS011;8643;48.824;11.422;2022-12-29T11:57:46;3.53;;;2.78;;
17052;SDS011;8643;48.824;11.422;2022-12-29T12:00:16;3.88;;;2.20;;
17052;SDS011;8643;48.824;11.422;2022-12-29T12:02:53;7.45;;;2.25;;
17052;SDS011;8643;48.824;11.422;2022-12-29T12:05:31;3.83;;;2.08;;
17052;SDS011;8643;48.824;11.422;2022-12-29T12:08:09;3.92;;;2.42;;
17052;SDS011;8643;48.824;11.422;2022-12-29T12:10:48;3.03;;;1.58;;
17052;SDS011;8643;48.824;11.422;2022-12-29T12:13:28;3.67;;;1.70;;
17052;SDS011;8643;48.824;11.422;2022-12-29T12:16:04;2.40;;;1.30;;
17052;SDS011;8643;48.824;11.422;2022-12-29T12:18:42;5.25;;;1.67;;
17052;SDS011;8643;48.824;11.422;2022-12-29T12:21:18;4.40;;;1.75;;
17052;SDS011;8643;48.824;11.422;2022-12-29T12:24:03;3.38;;;1.50;;
17052;SDS011;8643;48.824;11.422;2022-12-29T12:26:54;3.17;;;1.80;;
17052;SDS011;8643;48.824;11.422;2022-12-29T12:29:32;2.70;;;1.50;;
17052;SDS011;8643;48.824;11.422;2022-12-29T12:32:10;3.22;;;1.70;;
17052;SDS011;8643;48.824;11.422;2022-12-29T12:34:48;7.15;;;3.10;;
17052;SDS011;8643;48.824;11.422;2022-12-29T12:37:37;5.47;;;2.50;;
17052;SDS011;8643;48.824;11.422;2022-12-29T12:43:43;3.22;;;1.70;;
17052;SDS011;8643;48.824;11.422;2022-12-29T12:49:33;4.68;;;2.03;;
17052;SDS011;8643;48.824;11.422;2022-12-29T12:52:22;6.15;;;2.70;;
17052;SDS011;8643;48.824;11.422;2022-12-29T12:55:13;4.45;;;2.30;;
17052;SDS011;8643;48.824;11.422;2022-12-29T12:57:53;8.73;;;3.95;;
17052;SDS011;8643;48.824;11.422;2022-12-29T13:00:39;3.67;;;2.17;;
17052;SDS011;8643;48.824;11.422;2022-12-29T13:03:21;6.10;;;2.03;;
17052;SDS011;8643;48.824;11.422;2022-12-29T13:06:11;5.68;;;2.20;;
17052;SDS011;8643;48.824;11.422;2022-12-29T13:08:59;5.10;;;2.00;;
17052;SDS011;8643;48.824;11.422;2022-12-29T13:12:01;6.53;;;2.75;;
17052;SDS011;8643;48.824;11.422;2022-12-29T13:14:47;5.28;;;2.40;;
17052;SDS011;8643;48.824;11.422;2022-12-29T13:17:25;3.10;;;1.83;;
17052;SDS011;8643;48.824;11.422;2022-12-29T13:20:05;4.25;;;1.73;;
17052;SDS011;8643;48.824;11.422;2022-12-29T13:22:55;5.20;;;2.47;;
17052;SDS011;8643;48.824;11.422;2022-12-29T13:25:34;4.13;;;2.20;;
17052;SDS011;8643;48.824;11.422;2022-12-29T13:28:12;4.07;;;2.00;;
17052;SDS011;8643;48.824;11.422;2022-12-29T13:30:53;4.57;;;2.40;;
17052;SDS011;8643;48.824;11.422;2022-12-29T13:33:33;3.30;;;2.15;;
17052;SDS011;8643;48.824;11.422;2022-12-29T13:36:22;5.22;;;1.95;;
17052;SDS011;8643;48.824;11.422;2022-12-29T13:38:59;6.72;;;2.80;;
17052;SDS011;8643;48.824;11.422;2022-12-29T13:41:42;5.05;;;2.30;;
17052;SDS011;8643;48.824;11.422;2022-12-29T13:44:17;4.80;;;2.20;;
17052;SDS011;8643;48.824;11.422;2022-12-29T13:46:51;7.18;;;1.75;;
17052;SDS011;8643;48.824;11.422;2022-12-29T13:49:23;4.50;;;2.35;;
17052;SDS011;8643;48.824;11.422;2022-12-29T13:51:54;3.75;;;1.80;;
17052;SDS011;8643;48.824;11.422;2022-12-29T13:54:29;3.92;;;1.90;;
17052;SDS011;8643;48.824;11.422;2022-12-29T13:57:11;3.97;;;1.75;;
17052;SDS011;8643;48.824;11.422;2022-12-29T13:59:57;5.37;;;1.80;;
17052;SDS011;8643;48.824;11.422;2022-12-29T14:02:37;3.80;;;2.10;;
17052;SDS011;8643;48.824;11.422;2022-12-29T14:05:32;2.37;;;1.67;;
17052;SDS011;8643;48.824;11.422;2022-12-29T14:08:01;4.15;;;1.88;;
17052;SDS011;8643;48.824;11.422;2022-12-29T14:10:34;4.95;;;1.95;;
17052;SDS011;8643;48.824;11.422;2022-12-29T14:13:05;7.70;;;2.05;;
17052;SDS011;8643;48.824;11.422;2022-12-29T14:15:42;5.72;;;2.03;;
17052;SDS011;8643;48.824;11.422;2022-12-29T14:18:13;5.00;;;2.27;;
17052;SDS011;8643;48.824;11.422;2022-12-29T14:20:47;4.83;;;2.10;;
17052;SDS011;8643;48.824;11.422;2022-12-29T14:23:36;5.43;;;2.27;;
17052;SDS011;8643;48.824;11.422;2022-12-29T14:26:16;3.67;;;1.90;;
17052;SDS011;8643;48.824;11.422;2022-12-29T14:38:16;3.58;;;2.00;;
17052;SDS011;8643;48.824;11.422;2022-12-29T14:40:50;3.57;;;2.27;;
17052;SDS011;8643;48.824;11.422;2022-12-29T14:43:23;4.47;;;2.40;;
17052;SDS011;8643;48.824;11.422;2022-12-29T14:45:55;6.50;;;2.53;;
17052;SDS011;8643;48.824;11.422;2022-12-29T14:48:30;4.63;;;2.40;;
17052;SDS011;8643;48.824;11.422;2022-12-29T14:51:26;4.37;;;2.30;;
17052;SDS011;8643;48.824;11.422;2022-12-29T14:57:12;4.73;;;2.33;;
17052;SDS011;8643;48.824;11.422;2022-12-29T14:59:52;5.43;;;3.50;;
17052;SDS011;8643;48.824;11.422;2022-12-29T15:02:26;10.50;;;4.13;;
17052;SDS011;8643;48.824;11.422;2022-12-29T15:05:05;4.07;;;2.00;;
17052;SDS011;8643;48.824;11.422;2022-12-29T15:07:53;6.23;;;3.13;;
17052;SDS011;8643;48.824;11.422;2022-12-29T15:10:25;6.27;;;2.50;;
17052;SDS011;8643;48.824;11.422;2022-12-29T15:13:05;5.20;;;2.60;;
17052;SDS011;8643;48.824;11.422;2022-12-29T15:15:44;3.70;;;2.63;;
17052;SDS011;8643;48.824;11.422;2022-12-29T15:18:26;5.10;;;2.63;;
17052;SDS011;8643;48.824;11.422;2022-12-29T15:20:57;5.57;;;2.63;;
17052;SDS011;8643;48.824;11.422;2022-12-29T15:23:29;5.87;;;2.53;;
17052;SDS011;8643;48.824;11.422;2022-12-29T15:26:00;4.73;;;3.27;;
17052;SDS011;8643;48.824;11.422;2022-12-29T15:28:36;4.77;;;2.80;;
17052;SDS011;8643;48.824;11.422;2022-12-29T15:31:11;6.97;;;3.27;;
17052;SDS011;8643;48.824;11.422;2022-12-29T15:33:42;6.07;;;3.20;;
17052;SDS011;8643;48.824;11.422;2022-12-29T15:36:14;8.03;;;3.70;;
17052;SDS011;8643;48.824;11.422;2022-12-29T15:38:48;7.07;;;3.83;;
17052;SDS011;8643;48.824;11.422;2022-12-29T15:41:23;7.77;;;3.27;;
17052;SDS011;8643;48.824;11.422;2022-12-29T15:44:02;6.47;;;2.90;;
17052;SDS011;8643;48.824;11.422;2022-12-29T15:46:46;6.73;;;3.23;;
17052;SDS011;8643;48.824;11.422;2022-12-29T15:49:15;4.87;;;3.43;;
17052;SDS011;8643;48.824;11.422;2022-12-29T15:51:44;8.13;;;3.57;;
17052;SDS011;8643;48.824;11.422;2022-12-29T15:54:14;8.53;;;4.10;;
17052;SDS011;8643;48.824;11.422;2022-12-29T15:56:45;9.00;;;4.30;;
17052;SDS011;8643;48.824;11.422;2022-12-29T15:59:22;12.23;;;5.03;;
17052;SDS011;8643;48.824;11.422;2022-12-29T16:01:54;9.00;;;4.50;;
17052;SDS011;8643;48.824;11.422;2022-12-29T16:04:26;8.73;;;4.40;;
17052;SDS011;8643;48.824;11.422;2022-12-29T16:07:25;8.50;;;3.70;;
17052;SDS011;8643;48.824;11.422;2022-12-29T16:10:04;10.87;;;4.20;;